createdAt,value
2023-06-07T00:00:02.691Z,30.830757722275084
2023-06-07T00:15:01.652Z,30.478804514603123
2023-06-07T00:30:02.636Z,30.720217241249
2023-06-07T00:45:01.485Z,30.780917291497335
2023-06-07T01:00:02.422Z,31.047668422116438
2023-06-07T01:15:02.294Z,31.248086066194144
2023-06-07T01:30:02.156Z,30.817602183037312
2023-06-07T01:45:01.997Z,31.028387842657857
2023-06-07T02:00:01.833Z,30.93668704545975
2023-06-07T02:15:01.694Z,30.920013158141956
2023-06-07T02:30:01.918Z,31.24878272043702
2023-06-07T02:45:01.903Z,31.317381503469562
2023-06-07T03:00:01.908Z,31.575491706084158
2023-06-07T03:15:01.708Z,31.600818955876306
2023-06-07T03:30:01.445Z,31.61406417516728
2023-06-07T03:45:02.144Z,30.93770635171024
2023-06-07T04:00:02.348Z,30.774889563888525
2023-06-07T04:15:02.196Z,31.037477042327254
2023-06-07T04:30:02.013Z,30.885050216826244
2023-06-07T04:45:01.905Z,30.278334554976176
2023-06-07T05:00:01.645Z,29.79216091072303
2023-06-07T05:15:02.453Z,29.56569205691891
2023-06-07T05:30:02.095Z,29.686720217512594
2023-06-07T05:45:01.708Z,28.510791693045793
2023-06-07T06:00:02.394Z,28.99876782863167
2023-06-07T06:15:02.228Z,29.038836469367634
2023-06-07T06:30:01.928Z,29.424419583594474
2023-06-07T06:45:01.708Z,28.15416684187533
2023-06-07T07:00:02.444Z,25.90929234963608
2023-06-07T07:15:02.287Z,23.902496273482907
2023-06-07T07:30:01.968Z,22.76365712071182
2023-06-07T07:45:01.564Z,21.466394413055927
2023-06-07T08:00:02.344Z,21.521120898470713
2023-06-07T08:15:02.156Z,22.39752582927903
2023-06-07T08:30:02.071Z,21.709017306493088
2023-06-07T08:45:02.025Z,23.47190279559491
2023-06-07T09:00:01.689Z,25.196823866474347
2023-06-07T09:15:01.377Z,21.701980943190573
2023-06-07T09:30:02.226Z,19.524140201780046
2023-06-07T09:45:02.079Z,18.598400790934043
2023-06-07T10:00:01.774Z,18.965614582124275
2023-06-07T10:15:01.444Z,17.13576794648548
2023-06-07T10:30:02.212Z,16.634524879185683
2023-06-07T10:45:02.077Z,19.024810809221073
2023-06-07T11:00:01.732Z,17.439211491099787
2023-06-07T11:15:01.455Z,16.79194988981215
2023-06-07T11:30:02.388Z,17.690306985066677
2023-06-07T11:45:02.196Z,17.863916522967695
2023-06-07T12:00:02.108Z,18.838641498121245
2023-06-07T12:15:01.825Z,18.31283602209738
2023-06-07T12:30:02.685Z,18.400248432281103
2023-06-07T12:45:01.610Z,17.48327248630064
2023-06-07T13:00:02.252Z,16.712303590886613
2023-06-07T13:15:02.013Z,18.113697911252782
2023-06-07T13:30:01.677Z,15.44157144911737
2023-06-07T13:45:02.334Z,15.953814791045861
2023-06-07T14:00:02.155Z,14.759257875645567
2023-06-07T14:15:02.066Z,13.32999701862266
2023-06-07T14:30:01.775Z,13.51308137719561
2023-06-07T14:45:02.708Z,16.00615434444972
2023-06-07T15:00:02.887Z,13.826372556179491
2023-06-07T15:15:01.855Z,15.16656478011231
2023-06-07T15:30:01.508Z,18.055280742419477
2023-06-07T15:45:02.202Z,17.000041526025495
2023-06-07T16:00:01.854Z,18.21721563449863
2023-06-07T16:15:01.494Z,16.609313845508225
2023-06-07T16:30:02.201Z,18.63607753283277
2023-06-07T16:45:01.928Z,20.840460069523708
2023-06-07T17:00:01.660Z,21.935373292763146
2023-06-07T17:15:01.442Z,22.34765889720451
2023-06-07T17:30:02.139Z,23.676119783207835
2023-06-07T17:45:01.805Z,24.54140498990852
2023-06-07T18:00:01.456Z,25.991692457150325
2023-06-07T18:15:02.092Z,26.574900792086105
2023-06-07T18:30:01.800Z,27.785715740127912
2023-06-07T18:45:01.519Z,28.977460559339473
2023-06-07T19:00:02.178Z,29.10492907507098
2023-06-07T19:15:01.884Z,28.959755892322434
2023-06-07T19:30:01.567Z,30.025195913223968
2023-06-07T19:45:02.188Z,30.96067482571506
2023-06-07T20:00:01.805Z,31.205033084840753
2023-06-07T20:15:01.471Z,31.22191060580523
2023-06-07T20:30:02.128Z,31.382738816450132
2023-06-07T20:45:01.780Z,31.678151271733256
2023-06-07T21:00:01.439Z,31.196087829553328
2023-06-07T21:15:02.089Z,31.21530184206882
2023-06-07T21:30:01.710Z,31.06840102477566
2023-06-07T21:45:01.389Z,31.02696282072038
2023-06-07T22:00:02.047Z,31.296469861127182
2023-06-07T22:15:01.860Z,31.03298304669969
2023-06-07T22:30:01.573Z,31.371428222877782
2023-06-07T22:45:02.246Z,31.76322498779001
2023-06-07T23:00:01.889Z,31.793681828919507
2023-06-07T23:15:01.618Z,32.13190416945975
2023-06-07T23:30:01.321Z,32.206910427772776
2023-06-07T23:45:01.946Z,32.505293466461715
